createdAt,value
2019-01-25T00:00:49.768Z,64.0
2019-01-25T00:02:49.704Z,64.0
2019-01-25T00:04:50.121Z,66.2
2019-01-25T00:06:50.154Z,64.2
2019-01-25T00:08:49.983Z,65.4
2019-01-25T00:10:49.801Z,62.8
2019-01-25T00:12:49.654Z,62.8
2019-01-25T00:14:49.615Z,64.5
2019-01-25T00:16:49.620Z,65.5
2019-01-25T00:18:50.524Z,65.1
2019-01-25T00:20:50.385Z,63.7
2019-01-25T00:22:50.333Z,63.7
2019-01-25T00:24:50.182Z,62.4
2019-01-25T00:26:50.414Z,60.7
2019-01-25T00:28:50.334Z,63.7
2019-01-25T00:30:49.534Z,62.3
2019-01-25T00:32:50.333Z,62.3
2019-01-25T00:34:50.496Z,61.8
2019-01-25T00:36:50.503Z,65.0
2019-01-25T00:38:50.359Z,60.9
2019-01-25T00:40:50.124Z,63.3
2019-01-25T00:42:49.980Z,63.3
2019-01-25T00:44:49.794Z,63.9
2019-01-25T00:46:49.954Z,62.0
2019-01-25T00:48:49.765Z,60.6
2019-01-25T00:50:49.638Z,60.6
2019-01-25T00:52:50.487Z,60.4
2019-01-25T00:54:50.315Z,62.9
2019-01-25T00:56:50.329Z,60.4
2019-01-25T00:58:50.148Z,60.4
2019-01-25T01:00:49.983Z,57.1
2019-01-25T01:02:49.798Z,59.9
2019-01-25T01:04:50.273Z,62.1
2019-01-25T01:06:50.446Z,63.2
2019-01-25T01:08:50.278Z,63.2
2019-01-25T01:10:50.033Z,61.1
2019-01-25T01:12:49.976Z,63.7
2019-01-25T01:14:49.805Z,62.8
2019-01-25T01:16:49.956Z,62.8
2019-01-25T01:18:49.848Z,62.8
2019-01-25T01:20:49.705Z,61.0
2019-01-25T01:22:49.520Z,59.5
2019-01-25T01:24:50.407Z,59.5
2019-01-25T01:26:50.429Z,59.2
2019-01-25T01:28:50.268Z,59.2
2019-01-25T01:30:50.096Z,60.3
2019-01-25T01:32:50.051Z,60.3
2019-01-25T01:34:50.057Z,59.2
2019-01-25T01:36:50.189Z,61.7
2019-01-25T01:38:49.984Z,61.7
2019-01-25T01:40:49.798Z,59.3
2019-01-25T01:42:49.668Z,59.7
2019-01-25T01:44:49.532Z,62.0
2019-01-25T01:46:49.650Z,62.0
2019-01-25T01:48:49.540Z,58.1
2019-01-25T01:50:50.379Z,58.8
2019-01-25T01:52:50.165Z,58.1
2019-01-25T01:54:50.015Z,57.2
2019-01-25T01:56:50.110Z,57.2
2019-01-25T01:58:49.900Z,57.3
2019-01-25T02:00:49.786Z,59.6
2019-01-25T02:02:49.713Z,56.8
2019-01-25T02:04:49.993Z,56.8
2019-01-25T02:06:50.133Z,57.0
2019-01-25T02:08:50.016Z,56.8
2019-01-25T02:10:49.910Z,57.0
2019-01-25T02:12:49.737Z,57.7
2019-01-25T02:14:49.856Z,57.7
2019-01-25T02:16:49.977Z,57.2
2019-01-25T02:18:49.845Z,54.9
2019-01-25T02:20:49.901Z,56.0
2019-01-25T02:22:50.057Z,55.5
2019-01-25T02:24:50.027Z,55.5
2019-01-25T02:26:50.267Z,56.8
2019-01-25T02:28:50.156Z,57.1
2019-01-25T02:30:50.080Z,57.4
2019-01-25T02:32:50.032Z,58.0
2019-01-25T02:34:50.119Z,58.0
2019-01-25T02:36:50.178Z,56.4
2019-01-25T02:38:50.028Z,53.7
2019-01-25T02:40:49.850Z,54.6
2019-01-25T02:42:49.727Z,52.1
2019-01-25T02:44:49.640Z,52.1
2019-01-25T02:46:49.725Z,53.3
2019-01-25T02:48:49.635Z,51.2
2019-01-25T02:50:50.438Z,54.6
2019-01-25T02:52:50.301Z,54.6
2019-01-25T02:54:50.121Z,51.3
2019-01-25T02:56:50.213Z,51.3
2019-01-25T02:58:49.994Z,52.5
2019-01-25T03:00:49.807Z,52.6
2019-01-25T03:02:49.662Z,51.3
2019-01-25T03:04:49.981Z,51.3
2019-01-25T03:06:50.027Z,52.2
2019-01-25T03:08:50.254Z,51.9
2019-01-25T03:10:50.114Z,51.9
2019-01-25T03:12:49.977Z,52.4
2019-01-25T03:14:49.766Z,52.4
2019-01-25T03:16:49.821Z,53.1
2019-01-25T03:18:49.791Z,52.8
2019-01-25T03:20:49.664Z,52.9
2019-01-25T03:22:49.762Z,52.9
2019-01-25T03:24:49.591Z,55.4
2019-01-25T03:26:49.668Z,54.2
2019-01-25T03:28:49.515Z,54.6
2019-01-25T03:30:50.423Z,54.6
2019-01-25T03:32:50.325Z,55.1
2019-01-25T03:34:49.552Z,55.1
2019-01-25T03:36:49.809Z,57.0
2019-01-25T03:38:49.720Z,55.8
2019-01-25T03:40:55.568Z,55.8
2019-01-25T03:42:50.509Z,58.1
2019-01-25T03:44:50.303Z,58.1
2019-01-25T03:46:50.401Z,58.2
2019-01-25T03:48:50.221Z,58.9
2019-01-25T03:50:50.057Z,58.9
2019-01-25T03:52:50.014Z,58.8
2019-01-25T03:54:49.909Z,58.5
2019-01-25T03:56:49.955Z,59.4
2019-01-25T03:58:49.742Z,58.7
2019-01-25T04:00:49.577Z,58.7
2019-01-25T04:02:50.490Z,59.8
2019-01-25T04:04:49.876Z,60.7
2019-01-25T04:06:49.889Z,60.4
2019-01-25T04:08:49.708Z,60.5
2019-01-25T04:10:49.555Z,60.5
2019-01-25T04:12:50.351Z,58.1
2019-01-25T04:14:50.208Z,58.7
2019-01-25T04:16:50.344Z,59.2
2019-01-25T04:18:50.233Z,58.0
2019-01-25T04:20:50.113Z,58.0
2019-01-25T04:22:49.974Z,58.2
2019-01-25T04:24:49.778Z,57.6
2019-01-25T04:26:49.924Z,56.9
2019-01-25T04:28:49.765Z,56.9
2019-01-25T04:30:49.570Z,57.4
2019-01-25T04:32:50.521Z,57.8
2019-01-25T04:34:49.793Z,59.3
2019-01-25T04:36:49.817Z,59.5
2019-01-25T04:38:49.689Z,59.5
2019-01-25T04:40:49.600Z,59.8
2019-01-25T04:42:50.438Z,59.8
2019-01-25T04:44:50.314Z,60.8
2019-01-25T04:46:50.434Z,58.3
2019-01-25T04:48:50.273Z,58.3
2019-01-25T04:50:50.148Z,59.7
2019-01-25T04:52:49.997Z,59.5
2019-01-25T04:54:49.883Z,60.6
2019-01-25T04:56:50.061Z,59.5
2019-01-25T04:58:49.924Z,59.5
2019-01-25T05:00:49.836Z,60.4
2019-01-25T05:02:49.678Z,60.5
2019-01-25T05:04:50.135Z,61.1
2019-01-25T05:06:50.123Z,61.1
2019-01-25T05:08:49.977Z,61.8
2019-01-25T05:10:49.825Z,61.8
2019-01-25T05:12:53.306Z,60.6
2019-01-25T05:14:50.149Z,60.7
2019-01-25T05:16:50.241Z,60.7
2019-01-25T05:18:50.067Z,61.5
2019-01-25T05:20:51.098Z,61.5
2019-01-25T05:22:49.961Z,60.8
2019-01-25T05:24:49.739Z,62.5
2019-01-25T05:26:50.192Z,62.5
2019-01-25T05:28:49.988Z,62.5
2019-01-25T05:30:49.831Z,63.1
2019-01-25T05:32:49.695Z,61.9
2019-01-25T05:34:50.058Z,63.7
2019-01-25T05:36:50.043Z,64.5
2019-01-25T05:38:49.924Z,64.5
2019-01-25T05:40:49.770Z,63.5
2019-01-25T05:42:49.681Z,62.3
2019-01-25T05:44:49.534Z,60.9
2019-01-25T05:46:49.629Z,60.9
2019-01-25T05:48:50.406Z,63.0
2019-01-25T05:50:50.268Z,61.6
2019-01-25T05:52:50.117Z,61.6
2019-01-25T05:54:49.926Z,61.3
2019-01-25T05:56:49.906Z,61.3
2019-01-25T05:58:49.755Z,62.0
2019-01-25T06:00:49.712Z,61.3
2019-01-25T06:02:49.553Z,62.6
2019-01-25T06:04:49.699Z,62.6
2019-01-25T06:06:49.708Z,61.0
2019-01-25T06:08:49.683Z,61.8
2019-01-25T06:10:49.539Z,61.8
2019-01-25T06:12:50.548Z,64.5
2019-01-25T06:14:50.409Z,64.5
2019-01-25T06:16:50.463Z,59.5
2019-01-25T06:18:50.322Z,59.5
2019-01-25T06:20:50.186Z,61.7
2019-01-25T06:22:50.095Z,61.8
2019-01-25T06:24:49.908Z,60.3
2019-01-25T06:26:49.961Z,60.3
2019-01-25T06:28:49.765Z,59.0
2019-01-25T06:30:49.589Z,59.0
2019-01-25T06:32:50.499Z,63.4
2019-01-25T06:34:49.683Z,63.1
2019-01-25T06:36:50.206Z,63.1
2019-01-25T06:38:50.051Z,61.3
2019-01-25T06:40:50.156Z,63.1
2019-01-25T06:42:50.010Z,62.3
2019-01-25T06:44:49.791Z,60.4
2019-01-25T06:46:49.824Z,60.4
2019-01-25T06:48:49.783Z,59.8
2019-01-25T06:50:49.651Z,61.4
2019-01-25T06:52:49.530Z,72.1
2019-01-25T06:54:50.361Z,63.5
2019-01-25T06:56:50.401Z,63.5
2019-01-25T06:58:50.204Z,61.0
2019-01-25T07:00:50.040Z,62.9
2019-01-25T07:02:49.862Z,60.5
2019-01-25T07:04:50.051Z,60.2
2019-01-25T07:06:50.080Z,60.2
2019-01-25T07:08:49.873Z,62.5
2019-01-25T07:10:49.700Z,60.1
2019-01-25T07:12:49.710Z,61.4
2019-01-25T07:14:49.522Z,61.4
2019-01-25T07:16:49.652Z,61.4
2019-01-25T07:18:50.472Z,59.0
2019-01-25T07:20:50.372Z,60.0
2019-01-25T07:22:50.265Z,59.6
2019-01-25T07:24:57.459Z,59.6
2019-01-25T07:26:49.584Z,59.5
2019-01-25T07:28:50.444Z,59.7
2019-01-25T07:30:50.218Z,59.1
2019-01-25T07:32:50.063Z,58.8
2019-01-25T07:34:50.124Z,58.8
2019-01-25T07:36:52.181Z,59.9
2019-01-25T07:38:50.029Z,59.2
2019-01-25T07:40:49.954Z,59.2
2019-01-25T07:42:49.829Z,59.5
2019-01-25T07:44:49.830Z,58.1
2019-01-25T07:46:50.227Z,57.5
2019-01-25T07:48:50.115Z,58.1
2019-01-25T07:50:50.034Z,58.4
2019-01-25T07:52:49.874Z,58.4
2019-01-25T07:54:49.855Z,59.5
2019-01-25T07:56:50.050Z,55.7
2019-01-25T07:58:50.011Z,55.8
2019-01-25T08:00:49.903Z,55.8
2019-01-25T08:02:49.803Z,57.8
2019-01-25T08:04:50.242Z,57.4
2019-01-25T08:06:50.449Z,55.5
2019-01-25T08:08:50.405Z,55.5
2019-01-25T08:10:50.284Z,55.9
2019-01-25T08:12:50.285Z,57.0
2019-01-25T08:14:50.193Z,56.0
2019-01-25T08:16:50.384Z,55.9
2019-01-25T08:18:50.373Z,55.9
2019-01-25T08:20:50.260Z,53.7
2019-01-25T08:22:50.257Z,54.2
2019-01-25T08:24:50.180Z,53.0
2019-01-25T08:26:50.344Z,55.0
2019-01-25T08:28:50.261Z,54.7
2019-01-25T08:30:50.092Z,54.7
2019-01-25T08:32:50.091Z,63.4
2019-01-25T08:34:50.438Z,57.5
2019-01-25T08:36:50.533Z,57.4
2019-01-25T08:38:50.335Z,57.4
2019-01-25T08:40:50.149Z,56.2
2019-01-25T08:42:50.052Z,56.9
2019-01-25T08:44:49.903Z,56.4
2019-01-25T08:46:50.062Z,57.4
2019-01-25T08:48:50.049Z,57.4
2019-01-25T08:50:50.209Z,53.7
2019-01-25T08:52:50.245Z,55.6
2019-01-25T08:54:50.171Z,56.5
2019-01-25T08:56:50.365Z,56.5
2019-01-25T08:58:50.302Z,57.6
2019-01-25T09:00:52.055Z,57.6
2019-01-25T09:02:49.976Z,58.3
2019-01-25T09:04:50.506Z,56.3
2019-01-25T09:06:49.589Z,56.3
2019-01-25T09:08:50.411Z,56.6
2019-01-25T09:10:50.256Z,56.0
2019-01-25T09:12:50.118Z,57.5
2019-01-25T09:14:49.918Z,58.0
2019-01-25T09:16:49.898Z,56.8
2019-01-25T09:18:49.714Z,56.8
2019-01-25T09:20:50.488Z,56.1
2019-01-25T09:22:50.372Z,56.7
2019-01-25T09:24:50.208Z,55.5
2019-01-25T09:26:50.296Z,56.5
2019-01-25T09:28:50.060Z,56.5
2019-01-25T09:30:49.914Z,56.5
2019-01-25T09:32:49.788Z,54.4
2019-01-25T09:34:49.968Z,55.8
2019-01-25T09:36:49.934Z,55.8
2019-01-25T09:38:49.757Z,55.5
2019-01-25T09:40:49.651Z,57.2
2019-01-25T09:42:49.512Z,55.5
2019-01-25T09:44:50.368Z,55.4
2019-01-25T09:46:50.303Z,55.4
2019-01-25T09:48:50.128Z,57.4
2019-01-25T09:50:53.114Z,57.8
2019-01-25T09:52:49.970Z,54.2
2019-01-25T09:54:49.836Z,54.2
2019-01-25T09:56:49.851Z,50.5
2019-01-25T09:58:49.676Z,50.5
2019-01-25T10:00:49.560Z,48.2
2019-01-25T10:02:50.322Z,50.1
2019-01-25T10:04:50.483Z,50.1
2019-01-25T10:06:50.523Z,44.6
2019-01-25T10:08:50.351Z,44.6
2019-01-25T10:10:50.379Z,39.5
2019-01-25T10:12:50.306Z,42.4
2019-01-25T10:14:50.086Z,43.3
2019-01-25T10:16:50.103Z,46.5
2019-01-25T10:18:49.966Z,46.5
2019-01-25T10:20:49.870Z,46.5
2019-01-25T10:22:49.795Z,39.3
2019-01-25T10:24:49.541Z,37.5
2019-01-25T10:26:49.560Z,37.5
2019-01-25T10:28:50.353Z,37.7
2019-01-25T10:30:50.241Z,36.8
2019-01-25T10:32:50.037Z,36.8
2019-01-25T10:34:50.224Z,35.0
2019-01-25T10:36:50.226Z,35.0
2019-01-25T10:38:50.092Z,34.1
2019-01-25T10:40:49.917Z,33.7
2019-01-25T10:42:53.744Z,32.2
2019-01-25T10:44:49.734Z,32.1
2019-01-25T10:46:49.819Z,32.1
2019-01-25T10:48:49.801Z,30.5
2019-01-25T10:50:49.631Z,29.2
2019-01-25T10:52:50.486Z,28.4
2019-01-25T10:54:50.297Z,28.4
2019-01-25T10:56:50.371Z,28.5
2019-01-25T10:58:50.202Z,29.3
2019-01-25T11:00:51.535Z,29.6
2019-01-25T11:02:49.635Z,29.6
2019-01-25T11:04:50.085Z,27.7
2019-01-25T11:06:49.560Z,27.7
2019-01-25T11:08:49.659Z,30.4
2019-01-25T11:10:49.713Z,27.6
2019-01-25T11:12:49.826Z,27.6
2019-01-25T11:14:49.841Z,30.9
2019-01-25T11:16:50.040Z,30.9
2019-01-25T11:18:50.069Z,31.6
2019-01-25T11:20:50.080Z,30.4
2019-01-25T11:22:49.897Z,29.2
2019-01-25T11:24:49.793Z,29.2
2019-01-25T11:26:49.885Z,30.1
2019-01-25T11:28:49.789Z,28.1
2019-01-25T11:30:49.639Z,29.2
2019-01-25T11:32:49.532Z,30.8
2019-01-25T11:34:49.630Z,30.8
2019-01-25T11:36:49.652Z,28.5
2019-01-25T11:38:49.597Z,27.1
2019-01-25T11:40:50.452Z,26.7
2019-01-25T11:42:50.255Z,26.7
2019-01-25T11:44:50.165Z,26.8
2019-01-25T11:46:50.295Z,27.3
2019-01-25T11:48:50.116Z,27.4
2019-01-25T11:50:49.990Z,24.6
2019-01-25T11:52:49.825Z,24.6
2019-01-25T11:54:50.596Z,23.7
2019-01-25T11:56:49.650Z,22.9
2019-01-25T11:58:50.491Z,21.7
2019-01-25T12:00:50.316Z,21.7
2019-01-25T12:02:50.068Z,20.8
2019-01-25T12:04:50.215Z,22.4
2019-01-25T12:06:50.202Z,21.9
2019-01-25T12:08:50.010Z,21.9
2019-01-25T12:10:49.808Z,24.1
2019-01-25T12:12:49.706Z,25.0
2019-01-25T12:14:49.802Z,25.0
2019-01-25T12:16:50.037Z,26.2
2019-01-25T12:18:50.015Z,26.1
2019-01-25T12:20:50.089Z,26.1
2019-01-25T12:22:50.100Z,27.0
2019-01-25T12:24:50.137Z,26.2
2019-01-25T12:26:50.239Z,27.4
2019-01-25T12:28:50.066Z,27.4
2019-01-25T12:30:49.897Z,25.5
2019-01-25T12:32:49.876Z,27.2
2019-01-25T12:34:50.225Z,25.5
2019-01-25T12:36:50.398Z,23.4
2019-01-25T12:38:50.427Z,23.4
2019-01-25T12:40:50.416Z,23.5
2019-01-25T12:42:49.569Z,23.5
2019-01-25T12:44:49.709Z,24.9
2019-01-25T12:46:49.875Z,26.2
2019-01-25T12:48:49.805Z,27.7
2019-01-25T12:50:49.784Z,27.7
2019-01-25T12:52:49.753Z,28.1
2019-01-25T12:54:49.686Z,27.2
2019-01-25T12:56:49.945Z,27.2
2019-01-25T12:58:50.001Z,27.2
2019-01-25T13:00:50.060Z,26.9
2019-01-25T13:02:50.069Z,27.1
2019-01-25T13:04:50.369Z,26.3
2019-01-25T13:06:49.538Z,27.7
2019-01-25T13:08:50.293Z,28.1
2019-01-25T13:10:50.154Z,28.1
2019-01-25T13:12:50.067Z,26.8
2019-01-25T13:14:49.870Z,29.2
2019-01-25T13:16:50.986Z,28.9
2019-01-25T13:18:49.736Z,28.9
2019-01-25T13:20:49.552Z,29.3
2019-01-25T13:22:50.514Z,29.5
2019-01-25T13:24:50.268Z,27.7
2019-01-25T13:26:49.791Z,27.7
2019-01-25T13:28:50.024Z,29.6
2019-01-25T13:30:50.036Z,29.6
2019-01-25T13:32:50.142Z,30.5
2019-01-25T13:34:49.679Z,30.5
2019-01-25T13:36:57.396Z,30.8
2019-01-25T13:38:49.559Z,30.8
2019-01-25T13:40:49.722Z,30.3
2019-01-25T13:42:49.976Z,29.0
2019-01-25T13:44:49.838Z,30.4
2019-01-25T13:46:49.906Z,28.2
2019-01-25T13:48:49.813Z,28.2
2019-01-25T13:50:49.679Z,28.9
2019-01-25T13:52:50.478Z,28.9
2019-01-25T13:54:50.453Z,27.1
2019-01-25T13:56:49.731Z,27.1
2019-01-25T13:58:50.115Z,26.2
2019-01-25T14:00:49.938Z,25.1
2019-01-25T14:02:49.837Z,21.1
2019-01-25T14:04:50.136Z,21.1
2019-01-25T14:06:50.181Z,22.8
2019-01-25T14:08:50.027Z,22.8
2019-01-25T14:10:50.429Z,23.1
2019-01-25T14:12:50.269Z,20.8
2019-01-25T14:14:50.130Z,24.0
2019-01-25T14:16:50.177Z,24.0
2019-01-25T14:18:50.038Z,21.5
2019-01-25T14:20:49.983Z,22.6
2019-01-25T14:22:49.815Z,22.4
2019-01-25T14:24:49.617Z,22.1
2019-01-25T14:26:49.640Z,22.1
2019-01-25T14:28:49.550Z,21.7
2019-01-25T14:30:50.362Z,22.7
2019-01-25T14:32:50.237Z,22.6
2019-01-25T14:34:50.348Z,22.6
2019-01-25T14:36:50.428Z,23.5
2019-01-25T14:38:50.226Z,23.3
2019-01-25T14:40:50.063Z,25.1
2019-01-25T14:42:49.910Z,24.2
2019-01-25T14:44:49.760Z,24.2
2019-01-25T14:46:49.817Z,24.0
2019-01-25T14:48:49.734Z,24.0
2019-01-25T14:50:49.625Z,26.4
2019-01-25T14:52:49.586Z,26.4
2019-01-25T14:54:50.409Z,25.8
2019-01-25T14:56:49.534Z,25.4
2019-01-25T14:58:50.494Z,24.9
2019-01-25T15:00:50.478Z,26.9
2019-01-25T15:02:50.313Z,26.9
2019-01-25T15:04:50.445Z,27.4
2019-01-25T15:06:50.470Z,26.8
2019-01-25T15:08:50.416Z,26.8
2019-01-25T15:10:50.287Z,27.3
2019-01-25T15:12:50.182Z,27.3
2019-01-25T15:14:50.027Z,27.7
2019-01-25T15:16:50.335Z,27.7
2019-01-25T15:18:49.716Z,26.8
2019-01-25T15:20:49.581Z,27.1
2019-01-25T15:22:50.385Z,27.9
2019-01-25T15:24:50.218Z,27.9
2019-01-25T15:26:50.153Z,27.7
2019-01-25T15:28:49.981Z,29.9
2019-01-25T15:30:49.851Z,29.0
2019-01-25T15:32:49.781Z,30.4
2019-01-25T15:34:50.093Z,30.4
2019-01-25T15:36:50.180Z,29.9
2019-01-25T15:38:50.010Z,30.3
2019-01-25T15:40:49.885Z,30.4
2019-01-25T15:42:49.694Z,30.4
2019-01-25T15:44:49.522Z,31.9
2019-01-25T15:46:50.512Z,32.2
2019-01-25T15:48:50.353Z,32.8
2019-01-25T15:50:50.158Z,32.8
2019-01-25T15:52:49.981Z,33.3
2019-01-25T15:54:49.874Z,34.0
2019-01-25T15:56:49.978Z,34.0
2019-01-25T15:58:49.780Z,33.4
2019-01-25T16:00:49.625Z,33.4
2019-01-25T16:02:49.578Z,33.7
2019-01-25T16:04:49.656Z,33.3
2019-01-25T16:06:49.729Z,34.9
2019-01-25T16:08:49.538Z,34.9
2019-01-25T16:10:50.424Z,35.5
2019-01-25T16:12:50.269Z,35.2
2019-01-25T16:14:50.111Z,35.1
2019-01-25T16:16:50.151Z,35.5
2019-01-25T16:18:49.961Z,35.5
2019-01-25T16:20:49.802Z,35.2
2019-01-25T16:22:49.653Z,35.2
2019-01-25T16:24:50.483Z,35.7
2019-01-25T16:26:49.536Z,35.7
2019-01-25T16:28:50.418Z,36.9
2019-01-25T16:30:50.363Z,36.9
2019-01-25T16:32:50.176Z,36.9
2019-01-25T16:34:50.482Z,36.6
2019-01-25T16:36:51.038Z,37.3
2019-01-25T16:38:49.929Z,37.3
2019-01-25T16:40:49.817Z,37.8
2019-01-25T16:42:49.584Z,36.3
2019-01-25T16:44:50.414Z,37.4
2019-01-25T16:46:50.417Z,38.5
2019-01-25T16:48:50.424Z,38.5
2019-01-25T16:50:50.247Z,37.0
2019-01-25T16:52:50.107Z,37.1
2019-01-25T16:54:49.975Z,37.5
2019-01-25T16:56:50.107Z,36.7
2019-01-25T16:58:49.971Z,36.7
2019-01-25T17:00:49.776Z,36.9
2019-01-25T17:02:49.559Z,37.4
2019-01-25T17:04:49.772Z,37.4
2019-01-25T17:06:49.852Z,37.7
2019-01-25T17:08:49.770Z,37.7
2019-01-25T17:10:49.669Z,38.5
2019-01-25T17:12:49.650Z,38.9
2019-01-25T17:14:50.451Z,38.9
2019-01-25T17:16:50.555Z,38.1
2019-01-25T17:18:50.374Z,38.1
2019-01-25T17:20:50.306Z,38.3
2019-01-25T17:22:50.194Z,37.7
2019-01-25T17:24:50.066Z,38.5
2019-01-25T17:26:50.110Z,38.8
2019-01-25T17:28:49.958Z,38.8
2019-01-25T17:30:49.801Z,39.2
2019-01-25T17:32:49.660Z,39.1
2019-01-25T17:34:50.029Z,38.6
2019-01-25T17:36:50.090Z,38.6
2019-01-25T17:38:49.917Z,39.4
2019-01-25T17:40:49.780Z,38.7
2019-01-25T17:42:49.745Z,41.3
2019-01-25T17:44:49.565Z,40.1
2019-01-25T17:46:49.687Z,40.1
2019-01-25T17:48:50.503Z,40.3
2019-01-25T17:50:50.420Z,39.5
2019-01-25T17:52:50.309Z,41.6
2019-01-25T17:54:50.171Z,41.6
2019-01-25T17:56:50.263Z,40.2
2019-01-25T17:58:50.145Z,40.2
2019-01-25T18:00:49.929Z,40.0
2019-01-25T18:02:49.818Z,40.3
2019-01-25T18:04:50.225Z,40.3
2019-01-25T18:06:50.213Z,38.1
2019-01-25T18:08:50.130Z,38.4
2019-01-25T18:10:49.967Z,38.2
2019-01-25T18:12:49.795Z,39.4
2019-01-25T18:14:49.746Z,39.4
2019-01-25T18:16:49.855Z,38.8
2019-01-25T18:18:49.693Z,38.8
2019-01-25T18:20:49.648Z,39.8
2019-01-25T18:22:49.536Z,38.7
2019-01-25T18:24:50.339Z,38.7
2019-01-25T18:26:50.470Z,40.3
2019-01-25T18:28:50.275Z,38.5
2019-01-25T18:30:50.213Z,38.8
2019-01-25T18:32:50.024Z,40.0
2019-01-25T18:34:50.268Z,39.2
2019-01-25T18:36:50.250Z,39.2
2019-01-25T18:38:50.130Z,38.3
2019-01-25T18:40:49.926Z,37.9
2019-01-25T18:42:49.822Z,39.1
2019-01-25T18:44:57.106Z,39.1
2019-01-25T18:46:50.139Z,39.2
2019-01-25T18:48:49.966Z,39.3
2019-01-25T18:50:49.824Z,38.8
2019-01-25T18:52:49.650Z,39.1
2019-01-25T18:54:49.549Z,39.1
2019-01-25T18:56:49.664Z,38.0
2019-01-25T18:58:49.515Z,37.3
2019-01-25T19:00:50.351Z,37.3
2019-01-25T19:02:50.188Z,37.3
2019-01-25T19:04:50.442Z,37.6
2019-01-25T19:06:50.410Z,39.0
2019-01-25T19:08:50.254Z,38.4
2019-01-25T19:10:50.117Z,38.3
2019-01-25T19:12:49.949Z,38.3
2019-01-25T19:14:49.821Z,37.0
2019-01-25T19:16:49.961Z,38.1
2019-01-25T19:18:49.756Z,37.8
2019-01-25T19:20:49.598Z,37.8
2019-01-25T19:22:49.680Z,37.8
2019-01-25T19:24:49.543Z,38.2
2019-01-25T19:26:49.643Z,37.6
2019-01-25T19:28:50.399Z,38.0
2019-01-25T19:30:50.450Z,38.0
2019-01-25T19:32:50.390Z,38.4
2019-01-25T19:34:50.497Z,39.6
2019-01-25T19:36:49.559Z,38.3
2019-01-25T19:38:50.381Z,37.7
2019-01-25T19:40:50.288Z,37.7
2019-01-25T19:42:50.124Z,39.1
2019-01-25T19:44:49.977Z,39.1
2019-01-25T19:46:49.991Z,39.6
2019-01-25T19:48:49.878Z,39.6
2019-01-25T19:50:49.737Z,37.8
2019-01-25T19:52:49.603Z,38.1
2019-01-25T19:54:50.391Z,38.4
2019-01-25T19:56:49.717Z,38.4
2019-01-25T19:58:49.586Z,39.0
2019-01-25T20:00:50.467Z,38.9
2019-01-25T20:02:50.325Z,38.9
2019-01-25T20:04:50.520Z,41.4
2019-01-25T20:06:49.605Z,38.7
2019-01-25T20:08:49.533Z,38.7
2019-01-25T20:10:50.363Z,38.5
2019-01-25T20:12:50.173Z,38.0
2019-01-25T20:14:50.021Z,38.2
2019-01-25T20:16:50.093Z,37.8
2019-01-25T20:18:49.967Z,37.1
2019-01-25T20:20:49.772Z,37.1
2019-01-25T20:22:49.869Z,37.1
2019-01-25T20:24:49.718Z,37.3
2019-01-25T20:26:49.768Z,36.1
2019-01-25T20:28:49.590Z,36.5
2019-01-25T20:30:50.073Z,36.5
2019-01-25T20:32:49.964Z,36.7
2019-01-25T20:34:50.053Z,36.7
2019-01-25T20:36:50.267Z,32.9
2019-01-25T20:38:50.081Z,32.9
2019-01-25T20:40:49.925Z,34.3
2019-01-25T20:42:49.792Z,34.3
2019-01-25T20:44:49.659Z,35.1
2019-01-25T20:46:49.680Z,34.0
2019-01-25T20:48:49.576Z,34.0
2019-01-25T20:50:50.393Z,41.5
2019-01-25T20:52:50.288Z,34.0
2019-01-25T20:54:50.144Z,34.0
2019-01-25T20:56:50.119Z,32.8
2019-01-25T20:58:50.047Z,33.3
2019-01-25T21:00:50.024Z,33.3
2019-01-25T21:02:49.937Z,32.6
2019-01-25T21:04:50.189Z,30.8
2019-01-25T21:06:50.364Z,32.4
2019-01-25T21:08:50.268Z,32.4
2019-01-25T21:10:50.176Z,31.2
2019-01-25T21:12:50.075Z,31.1
2019-01-25T21:14:49.883Z,31.1
2019-01-25T21:16:49.999Z,31.1
2019-01-25T21:18:49.851Z,28.4
2019-01-25T21:20:49.689Z,29.5
2019-01-25T21:22:49.547Z,29.6
2019-01-25T21:24:50.410Z,29.6
2019-01-25T21:26:50.462Z,29.6
2019-01-25T21:28:50.310Z,29.6
2019-01-25T21:30:50.203Z,29.6
2019-01-25T21:32:50.076Z,27.8
2019-01-25T21:34:50.243Z,30.2
2019-01-25T21:36:50.296Z,30.2
2019-01-25T21:38:50.118Z,30.2
2019-01-25T21:40:49.967Z,29.3
2019-01-25T21:42:49.802Z,29.7
2019-01-25T21:44:49.789Z,29.7
2019-01-25T21:46:49.807Z,28.6
2019-01-25T21:48:49.699Z,28.7
2019-01-25T21:50:49.545Z,35.5
2019-01-25T21:52:50.345Z,29.3
2019-01-25T21:54:50.245Z,27.9
2019-01-25T21:56:50.351Z,27.9
2019-01-25T21:58:50.255Z,29.0
2019-01-25T22:00:50.138Z,28.8
2019-01-25T22:02:50.007Z,27.4
2019-01-25T22:04:50.267Z,28.1
2019-01-25T22:06:50.215Z,28.1
2019-01-25T22:08:50.031Z,28.4
2019-01-25T22:10:49.842Z,26.2
2019-01-25T22:12:49.762Z,28.2
2019-01-25T22:14:49.591Z,27.2
2019-01-25T22:16:49.788Z,27.2
2019-01-25T22:18:49.633Z,26.9
2019-01-25T22:20:49.612Z,26.9
2019-01-25T22:22:50.459Z,27.0
2019-01-25T22:24:50.362Z,26.5
2019-01-25T22:26:50.419Z,26.5
2019-01-25T22:28:50.276Z,26.0
2019-01-25T22:30:50.201Z,26.3
2019-01-25T22:32:50.048Z,26.3
2019-01-25T22:34:50.235Z,26.6
2019-01-25T22:36:50.359Z,26.8
2019-01-25T22:38:50.221Z,27.8
2019-01-25T22:40:50.103Z,30.9
2019-01-25T22:42:49.909Z,26.6
2019-01-25T22:44:49.886Z,26.6
2019-01-25T22:46:50.015Z,25.5
2019-01-25T22:48:49.793Z,26.3
2019-01-25T22:50:49.650Z,26.3
2019-01-25T22:52:49.694Z,25.9
2019-01-25T22:54:49.562Z,25.9
2019-01-25T22:56:49.585Z,26.1
2019-01-25T22:58:50.498Z,26.0
2019-01-25T23:00:50.443Z,26.6
2019-01-25T23:02:50.426Z,26.6
2019-01-25T23:04:49.632Z,25.5
2019-01-25T23:06:49.827Z,26.5
2019-01-25T23:08:49.698Z,26.5
2019-01-25T23:10:49.863Z,25.9
2019-01-25T23:12:49.825Z,25.9
2019-01-25T23:14:49.702Z,26.5
2019-01-25T23:16:49.703Z,25.1
2019-01-25T23:18:49.656Z,25.7
2019-01-25T23:20:49.602Z,25.9
2019-01-25T23:22:49.521Z,25.9
2019-01-25T23:24:50.479Z,25.3
2019-01-25T23:26:50.507Z,25.3
2019-01-25T23:28:50.395Z,25.3
2019-01-25T23:30:50.243Z,23.8
2019-01-25T23:32:50.077Z,23.8
2019-01-25T23:34:50.225Z,24.7
2019-01-25T23:36:50.231Z,24.5
2019-01-25T23:38:50.206Z,23.8
2019-01-25T23:40:50.093Z,23.0
2019-01-25T23:42:49.979Z,23.0
2019-01-25T23:44:49.810Z,22.8
2019-01-25T23:46:50.028Z,22.9
2019-01-25T23:48:49.912Z,22.2
2019-01-25T23:50:49.843Z,22.2
2019-01-25T23:52:49.714Z,23.3
2019-01-25T23:54:49.529Z,23.3
2019-01-25T23:56:49.674Z,22.7
2019-01-25T23:58:50.466Z,22.8
